Time,TemperatureF,DewpointF,PressureIn,WindDirection,WindDirectionDegrees,WindSpeedMPH,WindSpeedGustMPH,Humidity,HourlyPrecipIn,Conditions,Clouds,dailyrainin,SoftwareType,DateUTC
2013-09-08 00:00:00,79.0,32.0,30.72,SSE,161,8.0,9.0,10,0.00,BC,SCT,0.00,Misterhouse,2013-09-08 07:00:00,
2013-09-08 00:06:00,79.2,32.0,30.72,South,190,8.0,8.0,10,0.00,BC,SCT,0.00,Misterhouse,2013-09-08 07:06:00,
2013-09-08 00:12:00,79.2,32.0,30.72,SSW,211,7.0,11.0,10,0.00,BC,SCT,0.00,Misterhouse,2013-09-08 07:12:00,
2013-09-08 00:18:00,79.0,32.0,30.72,SSE,162,8.0,8.0,10,0.00,BC,SCT,0.00,Misterhouse,2013-09-08 07:18:00,
2013-09-08 00:24:00,78.8,32.0,30.72,SSE,166,7.0,7.0,10,0.00,BC,SCT,0.00,Misterhouse,2013-09-08 07:24:00,
2013-09-08 00:30:00,79.0,32.0,30.72,SSE,160,7.0,8.0,10,0.00,BC,SCT,0.00,Misterhouse,2013-09-08 07:30:00,
2013-09-08 00:36:00,79.0,32.0,30.72,South,171,7.0,8.0,10,0.00,BC,SCT,0.00,Misterhouse,2013-09-08 07:36:00,
2013-09-08 00:42:00,79.0,32.0,30.72,SW,217,8.0,8.0,10,0.00,BC,SCT,0.00,Misterhouse,2013-09-08 07:42:00,
2013-09-08 00:48:00,78.8,32.0,30.69,South,172,7.0,10.0,10,0.00,BC,SCT,0.00,Misterhouse,2013-09-08 07:48:00,
2013-09-08 00:54:00,78.8,32.0,30.69,South,180,9.0,9.0,10,0.00,BC,SCT,0.00,Misterhouse,2013-09-08 07:54:00,
2013-09-08 01:00:00,78.6,32.0,30.69,SSW,200,8.0,8.0,10,0.00,BC,SCT,0.00,Misterhouse,2013-09-08 08:00:00,
2013-09-08 01:06:00,78.4,32.0,30.72,South,188,7.0,7.0,10,0.00,BC,SCT,0.00,Misterhouse,2013-09-08 08:06:00,
2013-09-08 01:12:00,78.3,32.0,30.72,South,173,5.0,6.0,10,0.00,BC,SCT,0.00,Misterhouse,2013-09-08 08:12:00,
2013-09-08 01:18:00,78.3,32.0,30.69,South,182,7.0,7.0,10,0.00,BC,SCT,0.00,Misterhouse,2013-09-08 08:18:00,
2013-09-08 01:24:00,78.3,32.0,30.69,South,170,8.0,8.0,8,0.00,BC,SCT,0.00,Misterhouse,2013-09-08 08:24:00,
2013-09-08 01:30:00,78.3,32.0,30.69,SSE,157,9.0,9.0,8,0.00,BC,SCT,0.00,Misterhouse,2013-09-08 08:30:00,
2013-09-08 01:36:00,78.3,32.0,30.69,South,189,8.0,8.0,10,0.00,BC,SCT,0.00,Misterhouse,2013-09-08 08:36:00,
2013-09-08 01:42:00,78.3,32.0,30.69,South,183,7.0,8.0,8,0.00,BC,SCT,0.00,Misterhouse,2013-09-08 08:42:00,
2013-09-08 01:48:00,78.1,32.0,30.69,SSE,158,7.0,7.0,8,0.00,BC,SCT,0.00,Misterhouse,2013-09-08 08:48:00,
2013-09-08 01:54:00,78.1,32.0,30.69,South,180,7.0,9.0,8,0.00,BC,SCT,0.00,Misterhouse,2013-09-08 08:54:00,
2013-09-08 02:00:00,77.9,32.0,30.69,South,180,7.0,7.0,8,0.00,BC,SCT,0.00,Misterhouse,2013-09-08 09:00:00,
2013-09-08 02:06:00,78.3,32.0,30.69,SSE,153,6.0,6.0,10,0.00,BC,SCT,0.00,Misterhouse,2013-09-08 09:06:00,
2013-09-08 02:12:00,77.9,32.0,30.69,SSE,151,5.0,6.0,8,0.00,BC,SCT,0.00,Misterhouse,2013-09-08 09:12:00,
2013-09-08 02:18:00,78.3,32.0,30.69,South,176,9.0,9.0,8,0.00,BC,SCT,0.00,Misterhouse,2013-09-08 09:18:00,
2013-09-08 02:24:00,78.1,32.0,30.69,South,182,7.0,7.0,8,0.00,BC,SCT,0.00,Misterhouse,2013-09-08 09:24:00,
2013-09-08 02:30:00,77.9,32.0,30.69,SSW,194,5.0,6.0,8,0.00,BC,SCT,0.00,Misterhouse,2013-09-08 09:30:00,
2013-09-08 02:36:00,77.4,32.0,30.69,South,182,7.0,7.0,8,0.00,BC,SCT,0.00,Misterhouse,2013-09-08 09:36:00,
2013-09-08 02:42:00,77.0,32.0,30.69,South,178,5.0,6.0,8,0.00,BC,SCT,0.00,Misterhouse,2013-09-08 09:42:00,
2013-09-08 02:48:00,76.5,32.0,30.69,South,169,5.0,6.0,8,0.00,BC,SCT,0.00,Misterhouse,2013-09-08 09:48:00,
2013-09-08 02:54:00,76.6,32.0,30.69,South,180,5.0,5.0,8,0.00,BC,SCT,0.00,Misterhouse,2013-09-08 09:54:00,
2013-09-08 03:00:00,76.6,32.0,30.69,SSW,199,4.0,6.0,8,0.00,BC,SCT,0.00,Misterhouse,2013-09-08 10:00:00,
2013-09-08 03:06:00,76.1,32.0,30.69,SSW,207,3.0,4.0,8,0.00,BC,SCT,0.00,Misterhouse,2013-09-08 10:06:00,
2013-09-08 03:12:00,76.1,32.0,30.69,SSW,197,6.0,6.0,8,0.00,BC,SCT,0.00,Misterhouse,2013-09-08 10:12:00,
2013-09-08 03:18:00,76.1,32.0,30.69,SSW,196,2.0,5.0,8,0.00,BC,SCT,0.00,Misterhouse,2013-09-08 10:18:00,
2013-09-08 03:24:00,76.8,32.0,30.69,SSE,165,6.0,8.0,8,0.00,BC,SCT,0.00,Misterhouse,2013-09-08 10:24:00,
2013-09-08 03:30:00,76.6,32.0,30.69,South,185,6.0,6.0,8,0.00,BC,SCT,0.00,Misterhouse,2013-09-08 10:30:00,
2013-09-08 03:36:00,75.9,32.0,30.69,South,172,6.0,6.0,8,0.00,BC,SCT,0.00,Misterhouse,2013-09-08 10:36:00,
2013-09-08 03:42:00,75.4,32.0,30.69,SSW,198,4.0,6.0,8,0.00,BC,SCT,0.00,Misterhouse,2013-09-08 10:42:00,
2013-09-08 03:48:00,75.7,32.0,30.69,South,172,5.0,6.0,8,0.00,BC,SCT,0.00,Misterhouse,2013-09-08 10:48:00,
2013-09-08 03:54:00,75.4,32.0,30.69,South,177,5.0,5.0,8,0.00,BC,SCT,0.00,Misterhouse,2013-09-08 10:54:00,
2013-09-08 04:00:00,74.8,32.0,30.69,South,183,5.0,5.0,8,0.00,BC,SCT,0.00,Misterhouse,2013-09-08 11:00:00,
2013-09-08 04:06:00,75.0,32.0,30.69,South,186,6.0,6.0,8,0.00,BC,SCT,0.00,Misterhouse,2013-09-08 11:06:00,
2013-09-08 04:12:00,75.2,32.0,30.69,South,169,7.0,8.0,8,0.00,BC,SCT,0.00,Misterhouse,2013-09-08 11:12:00,
2013-09-08 04:18:00,75.7,32.0,30.69,South,183,5.0,8.0,8,0.00,BC,SCT,0.00,Misterhouse,2013-09-08 11:18:00,
2013-09-08 04:24:00,75.7,32.0,30.69,SSE,168,5.0,9.0,8,0.00,BC,SCT,0.00,Misterhouse,2013-09-08 11:24:00,
2013-09-08 04:30:00,76.1,32.0,30.69,South,174,5.0,5.0,8,0.00,BC,SCT,0.00,Misterhouse,2013-09-08 11:30:00,
2013-09-08 04:36:00,75.9,32.0,30.69,South,172,0.0,0.0,8,0.00,BC,SCT,0.00,Misterhouse,2013-09-08 11:36:00,
2013-09-08 04:42:00,74.8,32.0,30.69,SSE,166,3.0,3.0,8,0.00,BC,SCT,0.00,Misterhouse,2013-09-08 11:42:00,
2013-09-08 04:48:00,74.7,32.0,30.69,South,185,0.0,0.0,8,0.00,BC,SCT,0.00,Misterhouse,2013-09-08 11:48:00,
2013-09-08 04:54:00,74.5,32.0,30.69,South,190,4.0,5.0,8,0.00,BC,SCT,0.00,Misterhouse,2013-09-08 11:54:00,
2013-09-08 05:00:00,75.0,32.0,30.69,SSW,192,5.0,5.0,8,0.00,BC,SCT,0.00,Misterhouse,2013-09-08 12:00:00,
2013-09-08 05:06:00,74.7,32.0,30.69,SSW,201,0.0,0.0,8,0.00,BC,SCT,0.00,Misterhouse,2013-09-08 12:06:00,
2013-09-08 05:12:00,73.2,32.0,30.69,SSW,201,0.0,0.0,9,0.00,BC,SCT,0.00,Misterhouse,2013-09-08 12:12:00,
2013-09-08 05:18:00,73.6,32.0,30.69,SSE,164,6.0,8.0,8,0.00,BC,SCT,0.00,Misterhouse,2013-09-08 12:18:00,
2013-09-08 05:24:00,74.7,32.0,30.69,South,176,4.0,6.0,8,0.00,BC,SCT,0.00,Misterhouse,2013-09-08 12:24:00,
2013-09-08 05:30:00,75.0,32.0,30.69,South,170,4.0,5.0,8,0.00,BC,SCT,0.00,Misterhouse,2013-09-08 12:30:00,
2013-09-08 05:36:00,75.4,32.0,30.69,South,188,6.0,6.0,8,0.00,BC,SCT,0.00,Misterhouse,2013-09-08 12:36:00,
2013-09-08 05:42:00,75.6,32.0,30.69,SSW,211,5.0,6.0,8,0.00,BC,SCT,0.00,Misterhouse,2013-09-08 12:42:00,
2013-09-08 05:48:00,76.1,32.0,30.69,SSW,194,4.0,4.0,8,0.00,BC,SCT,0.00,Misterhouse,2013-09-08 12:48:00,
2013-09-08 05:54:00,75.2,32.0,30.69,ENE,74,4.0,0.0,8,0.00,BC,SCT,0.00,Misterhouse,2013-09-08 12:54:00,
2013-09-08 06:00:00,73.4,32.0,30.69,ENE,74,0.0,0.0,8,0.00,BC,SCT,0.00,Misterhouse,2013-09-08 13:00:00,
2013-09-08 06:06:00,73.0,32.0,30.69,ENE,74,0.0,0.0,9,0.00,BC,SCT,0.00,Misterhouse,2013-09-08 13:06:00,
2013-09-08 06:12:00,72.5,32.0,30.69,ENE,74,0.0,0.0,9,0.00,BC,SCT,0.00,Misterhouse,2013-09-08 13:12:00,
2013-09-08 06:18:00,72.5,32.0,30.69,ENE,74,0.0,0.0,9,0.00,BC,SCT,0.00,Misterhouse,2013-09-08 13:18:00,
2013-09-08 06:24:00,72.9,32.0,30.69,ENE,74,0.0,0.0,9,0.00,BC,SCT,0.00,Misterhouse,2013-09-08 13:24:00,
2013-09-08 06:30:00,72.9,32.0,30.69,ENE,74,0.0,0.0,9,0.00,BC,SCT,0.00,Misterhouse,2013-09-08 13:30:00,
2013-09-08 06:36:00,72.9,32.0,30.69,ENE,74,0.0,0.0,9,0.00,BC,SCT,0.00,Misterhouse,2013-09-08 13:36:00,
2013-09-08 06:42:00,72.7,32.0,30.69,ENE,74,0.0,0.0,9,0.00,BC,SCT,0.00,Misterhouse,2013-09-08 13:42:00,
2013-09-08 06:48:00,72.7,32.0,30.69,ENE,74,0.0,0.0,9,0.00,BC,SCT,0.00,Misterhouse,2013-09-08 13:48:00,
2013-09-08 06:54:00,73.0,32.0,30.69,ENE,74,0.0,0.0,9,0.00,BC,SCT,0.00,Misterhouse,2013-09-08 13:54:00,
2013-09-08 07:00:00,73.9,32.0,30.69,ENE,74,0.0,0.0,8,0.00,BC,SCT,0.00,Misterhouse,2013-09-08 14:00:00,
2013-09-08 07:06:00,73.9,32.0,30.69,ENE,74,3.0,0.0,8,0.00,BC,SCT,0.00,Misterhouse,2013-09-08 14:06:00,
2013-09-08 07:12:00,73.2,32.0,30.69,ENE,73,0.0,0.0,9,0.00,BC,SCT,0.00,Misterhouse,2013-09-08 14:12:00,
2013-09-08 07:18:00,73.2,32.0,30.69,ENE,73,0.0,0.0,9,0.00,BC,SCT,0.00,Misterhouse,2013-09-08 14:18:00,
2013-09-08 07:24:00,72.9,32.0,30.69,ENE,73,0.0,0.0,9,0.00,BC,SCT,0.00,Misterhouse,2013-09-08 14:24:00,
2013-09-08 07:30:00,73.2,32.0,30.69,ENE,73,0.0,0.0,9,0.00,BC,SCT,0.00,Misterhouse,2013-09-08 14:30:00,
2013-09-08 07:36:00,73.6,32.0,30.69,ENE,73,0.0,0.0,8,0.00,BC,SCT,0.00,Misterhouse,2013-09-08 14:36:00,
2013-09-08 07:42:00,73.8,32.0,30.69,ENE,73,0.0,0.0,8,0.00,BC,SCT,0.00,Misterhouse,2013-09-08 14:42:00,
2013-09-08 07:48:00,73.6,32.0,30.72,ENE,73,0.0,0.0,8,0.00,BC,SCT,0.00,Misterhouse,2013-09-08 14:48:00,
2013-09-08 07:54:00,73.8,32.0,30.72,ENE,73,0.0,0.0,8,0.00,BC,SCT,0.00,Misterhouse,2013-09-08 14:54:00,
2013-09-08 08:00:00,74.1,32.0,30.72,ENE,73,0.0,0.0,8,0.00,BC,SCT,0.00,Misterhouse,2013-09-08 15:00:00,
2013-09-08 08:06:00,74.8,32.0,30.69,ENE,73,0.0,0.0,8,0.00,BC,SCT,0.00,Misterhouse,2013-09-08 15:06:00,
2013-09-08 08:12:00,76.1,32.0,30.69,ENE,73,0.0,0.0,8,0.00,BC,SCT,0.00,Misterhouse,2013-09-08 15:12:00,
2013-09-08 08:18:00,76.8,32.0,30.69,ENE,73,0.0,0.0,8,0.00,BC,SCT,0.00,Misterhouse,2013-09-08 15:18:00,
2013-09-08 08:24:00,78.3,32.0,30.69,ENE,73,0.0,0.0,10,0.00,BC,SCT,0.00,Misterhouse,2013-09-08 15:24:00,
2013-09-08 08:30:00,79.2,32.0,30.69,ENE,73,0.0,0.0,10,0.00,BC,SCT,0.00,Misterhouse,2013-09-08 15:30:00,
2013-09-08 08:36:00,79.7,32.0,30.69,ENE,76,0.0,0.0,10,0.00,BC,SCT,0.00,Misterhouse,2013-09-08 15:36:00,
2013-09-08 08:42:00,80.8,32.0,30.69,NE,39,0.0,0.0,9,0.00,BC,SCT,0.00,Misterhouse,2013-09-08 15:42:00,
2013-09-08 08:48:00,81.0,32.0,30.69,NNE,20,2.0,5.0,9,0.00,BC,SCT,0.00,Misterhouse,2013-09-08 15:48:00,
2013-09-08 08:54:00,81.3,32.0,30.69,NNE,20,0.0,0.0,9,0.00,BC,SCT,0.00,Misterhouse,2013-09-08 15:54:00,
2013-09-08 09:00:00,82.0,32.0,30.69,NNE,20,0.0,0.0,9,0.00,BC,SCT,0.00,Misterhouse,2013-09-08 16:00:00,
2013-09-08 09:06:00,82.6,32.0,30.72,NNW,333,4.0,4.0,9,0.00,BC,SCT,0.00,Misterhouse,2013-09-08 16:06:00,
2013-09-08 09:12:00,82.6,32.0,30.72,NNW,334,0.0,0.0,9,0.00,BC,SCT,0.00,Misterhouse,2013-09-08 16:12:00,
2013-09-08 09:18:00,83.5,32.0,30.72,NNW,334,0.0,3.0,9,0.00,BC,SCT,0.00,Misterhouse,2013-09-08 16:18:00,
2013-09-08 09:24:00,82.6,32.0,30.72,WNW,291,4.0,4.0,9,0.00,BC,SCT,0.00,Misterhouse,2013-09-08 16:24:00,
2013-09-08 09:30:00,83.1,32.0,30.72,WNW,297,4.0,0.0,9,0.00,BC,SCT,0.00,Misterhouse,2013-09-08 16:30:00,
2013-09-08 09:36:00,83.7,32.0,30.72,WNW,297,0.0,0.0,9,0.00,BC,SCT,0.00,Misterhouse,2013-09-08 16:36:00,
2013-09-08 09:42:00,84.2,32.0,30.72,WNW,297,0.0,0.0,8,0.00,BC,SCT,0.00,Misterhouse,2013-09-08 16:42:00,
2013-09-08 09:48:00,84.6,32.0,30.72,WNW,299,0.0,0.0,8,0.00,BC,SCT,0.00,Misterhouse,2013-09-08 16:48:00,
2013-09-08 09:54:00,85.3,32.0,30.72,WNW,299,0.0,0.0,8,0.00,BC,SCT,0.00,Misterhouse,2013-09-08 16:54:00,
2013-09-08 10:00:00,85.8,32.0,30.72,WNW,299,0.0,4.0,8,0.00,BC,SCT,0.00,Misterhouse,2013-09-08 17:00:00,
2013-09-08 10:06:00,86.4,32.0,30.69,NW,311,4.0,4.0,8,0.00,BC,SCT,0.00,Misterhouse,2013-09-08 17:06:00,
2013-09-08 10:12:00,86.2,32.0,30.69,WNW,297,0.0,0.0,8,0.00,BC,SCT,0.00,Misterhouse,2013-09-08 17:12:00,
2013-09-08 10:18:00,85.8,32.0,30.69,WNW,297,0.0,0.0,8,0.00,BC,SCT,0.00,Misterhouse,2013-09-08 17:18:00,
2013-09-08 10:24:00,86.2,32.0,30.69,NW,306,5.0,5.0,8,0.00,BC,SCT,0.00,Misterhouse,2013-09-08 17:24:00,
2013-09-08 10:30:00,86.7,32.0,30.69,NNW,331,4.0,4.0,8,0.00,BC,SCT,0.00,Misterhouse,2013-09-08 17:30:00,
2013-09-08 10:36:00,87.3,32.0,30.69,North,357,4.0,4.0,8,0.00,BC,SCT,0.00,Misterhouse,2013-09-08 17:36:00,
2013-09-08 10:42:00,87.1,32.0,30.69,NE,47,0.0,4.0,8,0.00,BC,SCT,0.00,Misterhouse,2013-09-08 17:42:00,
2013-09-08 10:48:00,88.2,32.0,30.69,NNE,13,5.0,5.0,8,0.00,BC,SCT,0.00,Misterhouse,2013-09-08 17:48:00,
2013-09-08 10:54:00,88.2,32.0,30.69,NE,54,0.0,0.0,8,0.00,BC,SCT,0.00,Misterhouse,2013-09-08 17:54:00,
2013-09-08 11:00:00,88.9,32.0,30.69,ENE,64,0.0,0.0,8,0.00,BC,SCT,0.00,Misterhouse,2013-09-08 18:00:00,
2013-09-08 11:06:00,88.5,32.0,30.69,NNW,344,4.0,6.0,8,0.00,BC,SCT,0.00,Misterhouse,2013-09-08 18:06:00,
2013-09-08 11:12:00,88.2,32.0,30.69,ENE,77,4.0,4.0,8,0.00,BC,SCT,0.00,Misterhouse,2013-09-08 18:12:00,
2013-09-08 11:18:00,89.6,32.0,30.69,WNW,296,5.0,6.0,7,0.00,BC,SCT,0.00,Misterhouse,2013-09-08 18:18:00,
2013-09-08 11:24:00,90.0,32.0,30.69,SSE,158,3.0,3.0,7,0.00,BC,SCT,0.00,Misterhouse,2013-09-08 18:24:00,
2013-09-08 11:30:00,90.3,32.0,30.69,North,353,3.0,3.0,7,0.00,BC,SCT,0.00,Misterhouse,2013-09-08 18:30:00,
2013-09-08 11:36:00,90.3,32.0,30.69,NW,306,4.0,4.0,7,0.00,BC,SCT,0.00,Misterhouse,2013-09-08 18:36:00,
2013-09-08 11:42:00,89.8,32.0,30.69,NW,314,3.0,6.0,7,0.00,BC,SCT,0.00,Misterhouse,2013-09-08 18:42:00,
2013-09-08 11:48:00,90.7,32.0,30.69,North,353,3.0,9.0,7,0.00,BC,SCT,0.00,Misterhouse,2013-09-08 18:48:00,
2013-09-08 11:54:00,91.2,32.0,30.69,East,97,4.0,4.0,7,0.00,BC,SCT,0.00,Misterhouse,2013-09-08 18:54:00,
2013-09-08 12:00:00,90.9,32.0,30.69,NW,326,5.0,6.0,7,0.00,BC,SCT,0.00,Misterhouse,2013-09-08 19:00:00,
2013-09-08 12:06:00,91.4,32.0,30.69,NW,326,5.0,5.0,7,0.00,BC,SCT,0.00,Misterhouse,2013-09-08 19:06:00,
2013-09-08 12:12:00,91.6,32.0,30.69,NE,48,3.0,0.0,7,0.00,BC,SCT,0.00,Misterhouse,2013-09-08 19:12:00,
2013-09-08 12:18:00,91.4,32.0,30.69,NNW,332,3.0,4.0,7,0.00,BC,SCT,0.00,Misterhouse,2013-09-08 19:18:00,
2013-09-08 12:24:00,91.4,32.0,30.69,NNW,337,5.0,5.0,7,0.00,BC,SCT,0.00,Misterhouse,2013-09-08 19:24:00,
2013-09-08 12:30:00,91.8,32.0,30.69,SW,230,0.0,3.0,7,0.00,BC,SCT,0.00,Misterhouse,2013-09-08 19:30:00,
2013-09-08 12:36:00,92.3,32.0,30.69,NNW,338,3.0,4.0,7,0.00,BC,SCT,0.00,Misterhouse,2013-09-08 19:36:00,
2013-09-08 12:42:00,92.3,32.0,30.69,NE,43,4.0,0.0,7,0.00,BC,SCT,0.00,Misterhouse,2013-09-08 19:42:00,
2013-09-08 12:48:00,91.6,32.0,30.69,NNW,335,0.0,4.0,7,0.00,BC,SCT,0.00,Misterhouse,2013-09-08 19:48:00,
2013-09-08 12:54:00,91.6,32.0,30.69,SW,233,4.0,4.0,7,0.00,BC,SCT,0.00,Misterhouse,2013-09-08 19:54:00,
2013-09-08 13:00:00,92.1,32.0,30.69,NNW,343,4.0,6.0,7,0.00,BC,SCT,0.00,Misterhouse,2013-09-08 20:00:00,
2013-09-08 13:06:00,91.9,32.0,30.66,WNW,303,4.0,5.0,7,0.00,RA,OVC,0.00,Misterhouse,2013-09-08 20:06:00,
2013-09-08 13:12:00,92.3,32.0,30.66,NW,312,4.0,4.0,7,0.00,RA,OVC,0.00,Misterhouse,2013-09-08 20:12:00,
2013-09-08 13:18:00,91.9,32.0,30.66,WNW,287,6.0,6.0,7,0.00,RA,OVC,0.00,Misterhouse,2013-09-08 20:18:00,
2013-09-08 13:24:00,91.9,32.0,30.66,WNW,285,3.0,3.0,7,0.00,RA,OVC,0.00,Misterhouse,2013-09-08 20:24:00,
2013-09-08 13:30:00,91.6,32.0,30.66,WNW,303,4.0,4.0,7,0.00,RA,OVC,0.00,Misterhouse,2013-09-08 20:30:00,
2013-09-08 13:36:00,91.2,32.0,30.66,WNW,295,11.0,11.0,7,0.00,RA,OVC,0.00,Misterhouse,2013-09-08 20:36:00,
2013-09-08 13:42:00,90.7,32.0,30.66,WSW,247,6.0,6.0,7,0.00,RA,OVC,0.00,Misterhouse,2013-09-08 20:42:00,
2013-09-08 13:48:00,90.9,32.0,30.66,SSE,164,7.0,7.0,7,0.00,RA,OVC,0.00,Misterhouse,2013-09-08 20:48:00,
2013-09-08 13:54:00,90.9,32.0,30.66,SSW,197,9.0,11.0,7,0.00,RA,OVC,0.00,Misterhouse,2013-09-08 20:54:00,
2013-09-08 14:00:00,90.9,32.0,30.66,SSW,192,9.0,9.0,7,0.00,RA,OVC,0.00,Misterhouse,2013-09-08 21:00:00,
2013-09-08 14:06:00,91.2,32.0,30.66,East,99,6.0,6.0,7,0.00,RA,OVC,0.00,Misterhouse,2013-09-08 21:06:00,
2013-09-08 14:12:00,90.7,32.0,30.66,SSW,201,5.0,5.0,7,0.00,RA,OVC,0.00,Misterhouse,2013-09-08 21:12:00,
2013-09-08 14:18:00,90.7,32.0,30.66,WSW,240,10.0,10.0,7,0.00,RA,OVC,0.00,Misterhouse,2013-09-08 21:18:00,
2013-09-08 14:24:00,91.4,32.0,30.66,SW,227,5.0,9.0,7,0.00,RA,OVC,0.00,Misterhouse,2013-09-08 21:24:00,
2013-09-08 14:30:00,90.1,32.0,30.66,West,260,4.0,5.0,7,0.00,RA,OVC,0.00,Misterhouse,2013-09-08 21:30:00,
2013-09-08 14:36:00,91.4,32.0,30.63,SSW,194,6.0,6.0,7,0.00,RA,OVC,0.00,Misterhouse,2013-09-08 21:36:00,
2013-09-08 14:42:00,91.8,32.0,30.63,SSW,207,6.0,9.0,7,0.00,RA,OVC,0.00,Misterhouse,2013-09-08 21:42:00,
2013-09-08 14:48:00,89.4,32.0,30.63,West,271,11.0,11.0,8,0.00,RA,OVC,0.00,Misterhouse,2013-09-08 21:48:00,
2013-09-08 14:54:00,90.1,32.0,30.63,West,271,10.0,10.0,7,0.00,RA,OVC,0.00,Misterhouse,2013-09-08 21:54:00,
2013-09-08 15:00:00,91.6,32.0,30.63,SSW,210,5.0,6.0,7,0.00,RA,OVC,0.00,Misterhouse,2013-09-08 22:00:00,
2013-09-08 15:06:00,90.5,32.0,30.63,WNW,300,7.0,12.0,7,0.00,RA,OVC,0.00,Misterhouse,2013-09-08 22:06:00,
2013-09-08 15:12:00,91.2,32.0,30.63,WSW,248,8.0,8.0,7,0.00,RA,OVC,0.00,Misterhouse,2013-09-08 22:12:00,
2013-09-08 15:18:00,90.5,32.0,30.63,WSW,243,11.0,11.0,7,0.00,RA,OVC,0.00,Misterhouse,2013-09-08 22:18:00,
2013-09-08 15:24:00,89.2,32.0,30.63,SSW,211,11.0,13.0,8,0.00,RA,OVC,0.00,Misterhouse,2013-09-08 22:24:00,
2013-09-08 15:30:00,88.9,32.0,30.63,SW,224,9.0,12.0,8,0.00,RA,OVC,0.00,Misterhouse,2013-09-08 22:30:00,
2013-09-08 15:36:00,89.1,32.0,30.63,West,270,9.0,9.0,8,0.00,RA,OVC,0.00,Misterhouse,2013-09-08 22:36:00,
2013-09-08 15:42:00,89.6,32.0,30.63,South,181,10.0,12.0,7,0.00,RA,OVC,0.00,Misterhouse,2013-09-08 22:42:00,
2013-09-08 15:48:00,88.5,32.0,30.63,SSE,160,4.0,8.0,8,0.00,RA,OVC,0.00,Misterhouse,2013-09-08 22:48:00,
2013-09-08 15:54:00,89.6,32.0,30.63,SW,232,8.0,8.0,7,0.00,RA,OVC,0.00,Misterhouse,2013-09-08 22:54:00,
2013-09-08 16:00:00,89.4,32.0,30.63,SW,220,7.0,8.0,8,0.00,RA,OVC,0.00,Misterhouse,2013-09-08 23:00:00,
2013-09-08 16:06:00,89.1,32.0,30.63,SSW,207,7.0,9.0,8,0.00,RA,OVC,0.00,Misterhouse,2013-09-08 23:06:00,
2013-09-08 16:12:00,88.7,32.0,30.63,SSW,197,8.0,8.0,8,0.00,RA,OVC,0.00,Misterhouse,2013-09-08 23:12:00,
2013-09-08 16:18:00,87.8,32.0,30.63,West,259,8.0,9.0,8,0.00,RA,OVC,0.00,Misterhouse,2013-09-08 23:18:00,
2013-09-08 16:24:00,87.6,32.0,30.63,South,184,8.0,11.0,8,0.00,RA,OVC,0.00,Misterhouse,2013-09-08 23:24:00,
2013-09-08 16:30:00,87.4,32.0,30.63,South,180,12.0,12.0,8,0.00,RA,OVC,0.00,Misterhouse,2013-09-08 23:30:00,
2013-09-08 16:36:00,87.3,32.0,30.63,WSW,248,11.0,11.0,8,0.00,RA,OVC,0.00,Misterhouse,2013-09-08 23:36:00,
2013-09-08 16:42:00,87.6,32.0,30.63,SSW,198,8.0,10.0,8,0.00,RA,OVC,0.00,Misterhouse,2013-09-08 23:42:00,
2013-09-08 16:48:00,87.1,32.0,30.60,SW,223,8.0,8.0,8,0.00,RA,OVC,0.00,Misterhouse,2013-09-08 23:48:00,
2013-09-08 16:54:00,86.9,32.0,30.60,SSW,203,8.0,8.0,8,0.00,RA,OVC,0.00,Misterhouse,2013-09-08 23:54:00,
2013-09-08 17:00:00,86.9,32.0,30.60,South,172,8.0,8.0,8,0.00,RA,OVC,0.00,Misterhouse,2013-09-09 00:00:00,
2013-09-08 17:06:00,86.7,32.0,30.60,South,184,10.0,10.0,8,0.00,RA,OVC,0.00,Misterhouse,2013-09-09 00:06:00,
2013-09-08 17:12:00,86.4,32.0,30.60,WSW,237,8.0,8.0,8,0.00,RA,OVC,0.00,Misterhouse,2013-09-09 00:12:00,
2013-09-08 17:18:00,85.8,32.0,30.60,WSW,246,11.0,11.0,8,0.00,RA,OVC,0.00,Misterhouse,2013-09-09 00:18:00,
2013-09-08 17:24:00,85.8,32.0,30.60,SW,224,11.0,15.0,8,0.00,RA,OVC,0.00,Misterhouse,2013-09-09 00:24:00,
2013-09-08 17:30:00,85.3,32.0,30.60,South,183,11.0,11.0,8,0.00,RA,OVC,0.00,Misterhouse,2013-09-09 00:30:00,
2013-09-08 17:36:00,85.5,32.0,30.60,SW,215,8.0,11.0,8,0.00,RA,OVC,0.00,Misterhouse,2013-09-09 00:36:00,
2013-09-08 17:42:00,84.9,32.0,30.60,SSW,199,12.0,12.0,8,0.00,RA,OVC,0.00,Misterhouse,2013-09-09 00:42:00,
2013-09-08 17:48:00,84.7,32.0,30.60,SSW,213,9.0,9.0,8,0.00,RA,OVC,0.00,Misterhouse,2013-09-09 00:48:00,
2013-09-08 17:54:00,84.4,32.0,30.60,South,183,7.0,11.0,8,0.00,RA,OVC,0.00,Misterhouse,2013-09-09 00:54:00,
2013-09-08 18:00:00,84.0,32.0,30.60,SSE,151,9.0,13.0,9,0.00,RA,OVC,0.00,Misterhouse,2013-09-09 01:00:00,
2013-09-08 18:06:00,83.7,32.0,30.60,SSE,157,10.0,10.0,9,0.00,RA,OVC,0.00,Misterhouse,2013-09-09 01:06:00,
2013-09-08 18:12:00,83.1,32.0,30.60,SSW,201,13.0,13.0,9,0.00,RA,OVC,0.00,Misterhouse,2013-09-09 01:12:00,
2013-09-08 18:18:00,82.8,32.0,30.60,South,178,12.0,12.0,9,0.00,RA,OVC,0.00,Misterhouse,2013-09-09 01:18:00,
2013-09-08 18:24:00,82.6,32.0,30.60,South,185,11.0,11.0,9,0.00,RA,OVC,0.00,Misterhouse,2013-09-09 01:24:00,
2013-09-08 18:30:00,82.0,32.0,30.60,South,191,11.0,11.0,9,0.00,RA,OVC,0.00,Misterhouse,2013-09-09 01:30:00,
2013-09-08 18:36:00,81.5,32.0,30.60,South,176,14.0,14.0,9,0.00,RA,OVC,0.00,Misterhouse,2013-09-09 01:36:00,
2013-09-08 18:42:00,81.0,32.0,30.60,SSE,167,12.0,15.0,9,0.00,RA,OVC,0.00,Misterhouse,2013-09-09 01:42:00,
2013-09-08 18:48:00,80.6,32.0,30.63,SSE,168,13.0,14.0,9,0.00,RA,OVC,0.00,Misterhouse,2013-09-09 01:48:00,
2013-09-08 18:54:00,80.1,32.0,30.63,SSW,203,12.0,16.0,10,0.00,RA,OVC,0.00,Misterhouse,2013-09-09 01:54:00,
2013-09-08 19:00:00,79.7,32.0,30.63,SSW,207,11.0,11.0,10,0.00,RA,OVC,0.00,Misterhouse,2013-09-09 02:00:00,
2013-09-08 19:06:00,79.3,32.0,30.63,SSE,163,12.0,12.0,10,0.00,RA,OVC,0.00,Misterhouse,2013-09-09 02:06:00,
2013-09-08 19:12:00,79.3,32.0,30.63,South,178,15.0,15.0,10,0.00,RA,OVC,0.00,Misterhouse,2013-09-09 02:12:00,
2013-09-08 19:18:00,79.0,32.0,30.60,SSE,168,13.0,13.0,10,0.00,RA,OVC,0.00,Misterhouse,2013-09-09 02:18:00,
2013-09-08 19:24:00,78.8,32.0,30.60,SSE,149,15.0,15.0,10,0.00,RA,OVC,0.00,Misterhouse,2013-09-09 02:24:00,
2013-09-08 19:30:00,78.4,32.0,30.60,South,173,11.0,16.0,10,0.00,RA,OVC,0.00,Misterhouse,2013-09-09 02:30:00,
2013-09-08 19:36:00,78.4,32.0,30.63,South,185,14.0,15.0,10,0.00,RA,OVC,0.00,Misterhouse,2013-09-09 02:36:00,
2013-09-08 19:42:00,78.3,32.0,30.63,SSW,197,11.0,13.0,10,0.00,RA,OVC,0.00,Misterhouse,2013-09-09 02:42:00,
2013-09-08 19:48:00,78.1,32.0,30.63,SSE,166,11.0,11.0,10,0.00,RA,OVC,0.00,Misterhouse,2013-09-09 02:48:00,
2013-09-08 19:54:00,78.1,32.0,30.63,South,188,12.0,17.0,10,0.00,RA,OVC,0.00,Misterhouse,2013-09-09 02:54:00,
2013-09-08 20:00:00,78.3,32.0,30.63,SSW,194,12.0,12.0,10,0.00,RA,OVC,0.00,Misterhouse,2013-09-09 03:00:00,
2013-09-08 20:06:00,78.1,32.0,30.63,South,185,11.0,11.0,10,0.00,RA,OVC,0.00,Misterhouse,2013-09-09 03:06:00,
2013-09-08 20:12:00,78.1,32.0,30.63,South,174,11.0,11.0,10,0.00,RA,OVC,0.00,Misterhouse,2013-09-09 03:12:00,
2013-09-08 20:18:00,77.9,32.0,30.63,SE,144,12.0,12.0,10,0.00,RA,OVC,0.00,Misterhouse,2013-09-09 03:18:00,
2013-09-08 20:24:00,77.7,32.0,30.63,SSW,206,11.0,12.0,8,0.00,RA,OVC,0.00,Misterhouse,2013-09-09 03:24:00,
2013-09-08 20:30:00,77.5,32.0,30.63,SSE,154,11.0,11.0,8,0.00,RA,OVC,0.00,Misterhouse,2013-09-09 03:30:00,
2013-09-08 20:36:00,77.5,32.0,30.63,South,178,10.0,12.0,8,0.00,RA,OVC,0.00,Misterhouse,2013-09-09 03:36:00,
2013-09-08 20:42:00,77.4,32.0,30.63,SSW,193,8.0,8.0,8,0.00,RA,OVC,0.00,Misterhouse,2013-09-09 03:42:00,
2013-09-08 20:48:00,77.5,32.0,30.63,South,173,8.0,8.0,8,0.00,RA,OVC,0.00,Misterhouse,2013-09-09 03:48:00,
2013-09-08 20:54:00,78.1,32.0,30.63,SSW,211,8.0,11.0,10,0.00,RA,OVC,0.00,Misterhouse,2013-09-09 03:54:00,
2013-09-08 21:00:00,78.4,32.0,30.63,South,185,11.0,11.0,10,0.00,RA,OVC,0.00,Misterhouse,2013-09-09 04:00:00,
2013-09-08 21:02:00,78.6,32.0,30.63,South,188,10.0,10.0,10,0.00,RA,OVC,0.00,Misterhouse,2013-09-09 04:02:00,
2013-09-08 21:04:00,78.6,32.0,30.63,SSW,193,8.0,8.0,10,0.00,RA,OVC,0.00,Misterhouse,2013-09-09 04:04:00,
2013-09-08 21:10:00,78.6,32.0,30.63,South,187,8.0,8.0,10,0.00,RA,OVC,0.00,Misterhouse,2013-09-09 04:10:00,
2013-09-08 21:14:00,79.0,32.0,30.63,SSE,167,5.0,5.0,10,0.00,RA,OVC,0.00,Misterhouse,2013-09-09 04:14:00,
2013-09-08 21:20:00,78.4,32.0,30.63,SSW,210,4.0,4.0,10,0.00,RA,OVC,0.00,Misterhouse,2013-09-09 04:20:00,
2013-09-08 21:26:00,78.1,32.0,30.63,SSW,201,4.0,5.0,10,0.00,RA,OVC,0.00,Misterhouse,2013-09-09 04:26:00,
2013-09-08 21:32:00,78.1,32.0,30.63,South,172,0.0,6.0,10,0.00,RA,OVC,0.00,Misterhouse,2013-09-09 04:32:00,
2013-09-08 21:36:00,77.9,32.0,30.66,SW,224,3.0,4.0,8,0.00,BC,SCT,0.00,Misterhouse,2013-09-09 04:36:00,
2013-09-08 21:42:00,76.3,32.0,30.66,NW,324,4.0,5.0,8,0.00,BC,SCT,0.00,Misterhouse,2013-09-09 04:42:00,
2013-09-08 21:46:00,75.0,32.0,30.66,NW,324,0.0,0.0,8,0.00,BC,SCT,0.00,Misterhouse,2013-09-09 04:46:00,
2013-09-08 21:52:00,73.9,32.0,30.66,South,175,0.0,3.0,8,0.00,BC,SCT,0.00,Misterhouse,2013-09-09 04:52:00,
2013-09-08 21:58:00,74.7,32.0,30.66,South,174,4.0,4.0,8,0.00,BC,SCT,0.00,Misterhouse,2013-09-09 04:58:00,
2013-09-08 22:04:00,75.2,32.0,30.66,South,169,0.0,0.0,8,0.00,BC,SCT,0.00,Misterhouse,2013-09-09 05:04:00,
2013-09-08 22:10:00,75.6,32.0,30.66,South,169,0.0,0.0,8,0.00,BC,SCT,0.00,Misterhouse,2013-09-09 05:10:00,
2013-09-08 22:16:00,75.2,32.0,30.66,South,169,0.0,0.0,8,0.00,BC,SCT,0.00,Misterhouse,2013-09-09 05:16:00,
2013-09-08 22:22:00,74.8,32.0,30.66,South,169,0.0,0.0,8,0.00,BC,SCT,0.00,Misterhouse,2013-09-09 05:22:00,
2013-09-08 22:28:00,74.3,32.0,30.66,South,169,0.0,0.0,8,0.00,BC,SCT,0.00,Misterhouse,2013-09-09 05:28:00,
2013-09-08 22:34:00,74.3,32.0,30.66,South,169,0.0,0.0,8,0.00,BC,SCT,0.00,Misterhouse,2013-09-09 05:34:00,
2013-09-08 22:40:00,74.1,32.0,30.66,South,171,0.0,4.0,8,0.00,BC,SCT,0.00,Misterhouse,2013-09-09 05:40:00,
2013-09-08 22:46:00,74.7,32.0,30.66,SSW,204,3.0,5.0,8,0.00,BC,SCT,0.00,Misterhouse,2013-09-09 05:46:00,
2013-09-08 22:52:00,75.6,32.0,30.66,SSW,208,3.0,3.0,8,0.00,BC,SCT,0.00,Misterhouse,2013-09-09 05:52:00,
2013-09-08 22:58:00,75.9,32.0,30.66,SSW,208,0.0,0.0,8,0.00,BC,SCT,0.00,Misterhouse,2013-09-09 05:58:00,
2013-09-08 23:04:00,75.0,32.0,30.66,SSW,208,0.0,0.0,8,0.00,BC,SCT,0.00,Misterhouse,2013-09-09 06:04:00,
2013-09-08 23:10:00,73.0,32.0,30.66,SSW,208,0.0,0.0,9,0.00,BC,SCT,0.00,Misterhouse,2013-09-09 06:10:00,
2013-09-08 23:16:00,72.0,32.0,30.66,SSW,208,0.0,0.0,9,0.00,BC,SCT,0.00,Misterhouse,2013-09-09 06:16:00,
2013-09-08 23:22:00,71.2,32.0,30.69,SSW,200,0.0,0.0,9,0.00,BC,SCT,0.00,Misterhouse,2013-09-09 06:22:00,
2013-09-08 23:28:00,71.2,32.0,30.69,SSW,199,0.0,0.0,9,0.00,BC,SCT,0.00,Misterhouse,2013-09-09 06:28:00,
2013-09-08 23:34:00,72.1,32.0,30.69,SSW,199,0.0,0.0,9,0.00,BC,SCT,0.00,Misterhouse,2013-09-09 06:34:00,
2013-09-08 23:40:00,72.7,32.0,30.69,SSW,199,0.0,0.0,9,0.00,BC,SCT,0.00,Misterhouse,2013-09-09 06:40:00,
2013-09-08 23:46:00,72.7,32.0,30.69,SSW,199,0.0,0.0,9,0.00,BC,SCT,0.00,Misterhouse,2013-09-09 06:46:00,
2013-09-08 23:52:00,72.3,32.0,30.69,North,0,0.0,0.0,9,0.00,BC,SCT,0.00,Misterhouse,2013-09-09 06:52:00,
2013-09-08 23:58:00,72.0,32.0,30.69,NW,317,0.0,4.0,9,0.00,BC,SCT,0.00,Misterhouse,2013-09-09 06:58:00,